Time,TemperatureF,DewpointF,PressureIn,WindDirection,WindDirectionDegrees,WindSpeedMPH,WindSpeedGustMPH,Humidity,HourlyPrecipIn,Conditions,Clouds,dailyrainin,SoftwareType,DateUTC
2013-04-29 00:52:00,78.0,-99.9,30.02,ESE,120,17.0,21.0,-999,-99.99,,,-99.99,,2013-04-29 04:52:00,
2013-04-29 01:52:00,78.0,-99.9,30.00,ESE,120,17.0,21.0,-999,-99.99,,,-99.99,,2013-04-29 05:52:00,
2013-04-29 02:52:00,78.0,-99.9,29.98,SE,130,17.0,20.0,-999,-99.99,,,-99.99,,2013-04-29 06:52:00,
2013-04-29 03:52:00,78.0,-99.9,29.98,SE,130,17.0,18.0,-999,-99.99,,,-99.99,,2013-04-29 07:52:00,
2013-04-29 04:52:00,78.0,-99.9,29.97,SE,130,15.0,18.0,-999,-99.99,,,-99.99,,2013-04-29 08:52:00,
2013-04-29 05:53:00,78.0,-99.9,29.97,ESE,120,16.0,20.0,-999,-99.99,,,-99.99,,2013-04-29 09:53:00,
2013-04-29 06:53:00,77.0,-99.9,29.97,ESE,110,15.0,18.0,-999,-99.99,,,-99.99,,2013-04-29 10:53:00,
2013-04-29 07:52:00,78.0,-99.9,29.98,ESE,110,16.0,18.0,-999,-99.99,,,-99.99,,2013-04-29 11:52:00,
2013-04-29 08:52:00,78.0,-99.9,30.00,ESE,110,16.0,18.0,-999,-99.99,,,-99.99,,2013-04-29 12:52:00,
2013-04-29 09:52:00,78.0,-99.9,30.00,ESE,110,17.0,20.0,-999,-99.99,,,-99.99,,2013-04-29 13:52:00,
2013-04-29 10:52:00,77.0,-99.9,30.01,ESE,120,15.0,18.0,-999,-99.99,,,-99.99,,2013-04-29 14:52:00,
2013-04-29 11:53:00,78.0,-99.9,30.02,ESE,110,18.0,23.0,-999,-99.99,,,-99.99,,2013-04-29 15:53:00,
2013-04-29 12:53:00,77.0,-99.9,30.02,SE,130,20.0,23.0,-999,-99.99,,,-99.99,,2013-04-29 16:53:00,
2013-04-29 13:52:00,77.0,-99.9,30.02,SSE,160,18.0,21.0,-999,-99.99,,,-99.99,,2013-04-29 17:52:00,
2013-04-29 14:52:00,77.0,-99.9,30.01,South,180,11.0,13.0,-999,-99.99,,,-99.99,,2013-04-29 18:52:00,
2013-04-29 15:52:00,77.0,-99.9,29.96,South,170,15.0,18.0,-999,-99.99,,,-99.99,,2013-04-29 19:52:00,
2013-04-29 16:52:00,78.0,-99.9,29.98,SE,130,10.0,13.0,-999,-99.99,,,-99.99,,2013-04-29 20:52:00,
2013-04-29 17:53:00,79.0,-99.9,29.98,SE,130,9.0,13.0,-999,-99.99,,,-99.99,,2013-04-29 21:53:00,
2013-04-29 18:53:00,79.0,-99.9,29.95,SE,140,8.0,9.0,-999,-99.99,,,-99.99,,2013-04-29 22:53:00,
2013-04-29 19:53:00,78.0,-99.9,29.95,East,90,18.0,24.0,-999,-99.99,,,-99.99,,2013-04-29 23:53:00,
2013-04-29 20:52:00,77.0,-99.9,29.96,East,100,16.0,18.0,-999,-99.99,,,-99.99,,2013-04-30 00:52:00,
2013-04-29 21:52:00,78.0,-99.9,29.97,SE,140,15.0,17.0,-999,-99.99,,,-99.99,,2013-04-30 01:52:00,
2013-04-29 22:52:00,78.0,-99.9,29.96,SSE,150,16.0,18.0,-999,-99.99,,,-99.99,,2013-04-30 02:52:00,
2013-04-29 23:53:00,79.0,-99.9,29.97,SSE,150,18.0,21.0,-999,-99.99,,,-99.99,,2013-04-30 03:53:00,